Time;durP1;ratioP1;P1;durP2;ratioP2;P2;SDS_P1;SDS_P2;PMS_P1;PMS_P2;Temp;Humidity;BMP_temperature;BMP_pressure;BME280_temperature;BME280_humidity;BME280_pressure;Samples;Min_cycle;Max_cycle;Signal;HPM_P1;HPM_P2
2022/04/13 00:02:03;;;;;;;9.30;2.43;;;;;;;;;;7329069;19;20607;-79
2022/04/13 00:04:28;;;;;;;6.60;2.03;;;;;;;;;;7362375;19;20299;-75
2022/04/13 00:06:53;;;;;;;9.20;2.60;;;;;;;;;;7383743;19;20011;-76
2022/04/13 00:09:19;;;;;;;11.45;3.03;;;;;;;;;;7386112;19;20006;-79
2022/04/13 00:11:44;;;;;;;10.38;2.53;;;;;;;;;;7381973;19;20014;-77
2022/04/13 00:14:09;;;;;;;6.00;1.97;;;;;;;;;;7375735;19;20590;-77
2022/04/13 00:16:35;;;;;;;6.53;2.15;;;;;;;;;;7367888;19;20285;-77
2022/04/13 00:19:00;;;;;;;8.98;2.47;;;;;;;;;;7369366;19;20015;-78
2022/04/13 00:21:25;;;;;;;9.67;2.43;;;;;;;;;;7372453;19;20010;-79
2022/04/13 00:23:50;;;;;;;7.13;2.30;;;;;;;;;;7373528;19;20774;-75
2022/04/13 00:26:15;;;;;;;9.65;2.40;;;;;;;;;;7369823;19;20262;-77
2022/04/13 00:28:41;;;;;;;6.38;2.15;;;;;;;;;;7372628;19;20001;-76
2022/04/13 00:31:06;;;;;;;8.13;1.98;;;;;;;;;;7372047;19;20329;-77
2022/04/13 00:33:33;;;;;;;10.48;2.85;;;;;;;;;;7366992;19;20091;-76
2022/04/13 00:35:58;;;;;;;9.32;2.17;;;;;;;;;;7372732;19;20018;-76
2022/04/13 00:38:23;;;;;;;10.40;2.33;;;;;;;;;;7372191;19;20011;-78
2022/04/13 00:40:49;;;;;;;7.03;2.03;;;;;;;;;;7372919;19;20234;-78
2022/04/13 00:43:14;;;;;;;8.55;1.80;;;;;;;;;;7363847;19;20029;-80
2022/04/13 00:45:43;;;;;;;8.57;2.35;;;;;;;;;;7371167;19;20194;-80
2022/04/13 00:48:09;;;;;;;6.85;2.28;;;;;;;;;;7367681;19;20010;-78
2022/04/13 00:50:34;;;;;;;6.05;2.08;;;;;;;;;;7371981;19;20038;-79
2022/04/13 00:53:00;;;;;;;8.65;1.85;;;;;;;;;;7371488;19;20355;-78
2022/04/13 00:55:26;;;;;;;8.40;2.38;;;;;;;;;;7371160;19;20006;-78
2022/04/13 00:57:52;;;;;;;11.98;2.30;;;;;;;;;;7363544;19;20014;-79
2022/04/13 01:00:19;;;;;;;7.40;2.20;;;;;;;;;;7315325;19;20489;-79
2022/04/13 01:02:45;;;;;;;6.47;1.77;;;;;;;;;;7367398;19;20014;-77
2022/04/13 01:05:11;;;;;;;8.23;2.22;;;;;;;;;;7378785;19;19998;-77
2022/04/13 01:07:38;;;;;;;8.95;2.03;;;;;;;;;;7375340;19;20019;-78
2022/04/13 01:10:06;;;;;;;8.23;2.20;;;;;;;;;;7368132;19;20017;-78
2022/04/13 01:12:32;;;;;;;8.73;2.33;;;;;;;;;;7373341;19;20019;-79
2022/04/13 01:14:57;;;;;;;8.45;2.22;;;;;;;;;;7363598;19;20376;-80
2022/04/13 01:17:23;;;;;;;8.63;2.10;;;;;;;;;;7370485;19;20553;-79
2022/04/13 01:19:48;;;;;;;10.27;2.08;;;;;;;;;;7368074;19;20403;-80
2022/04/13 01:22:21;;;;;;;6.78;2.13;;;;;;;;;;7374390;19;20031;-78
2022/04/13 01:24:46;;;;;;;10.35;2.10;;;;;;;;;;7364623;19;20010;-78
2022/04/13 01:27:11;;;;;;;10.80;2.70;;;;;;;;;;7371700;19;20031;-78
2022/04/13 01:29:36;;;;;;;6.22;2.30;;;;;;;;;;7361126;19;20406;-79
2022/04/13 01:32:02;;;;;;;8.40;1.93;;;;;;;;;;7370511;19;20010;-77
2022/04/13 01:34:27;;;;;;;9.05;2.38;;;;;;;;;;7370457;19;20246;-79
2022/04/13 01:36:52;;;;;;;6.93;2.27;;;;;;;;;;7370724;19;20289;-78
2022/04/13 01:39:17;;;;;;;10.48;2.30;;;;;;;;;;7368832;19;20262;-80
2022/04/13 01:41:43;;;;;;;10.23;2.80;;;;;;;;;;7366915;19;20451;-81
2022/04/13 01:44:08;;;;;;;9.73;2.50;;;;;;;;;;7370638;19;20260;-79
2022/04/13 01:46:33;;;;;;;6.80;2.58;;;;;;;;;;7365343;19;20015;-79
2022/04/13 01:48:58;;;;;;;6.90;2.35;;;;;;;;;;7369728;19;19999;-77
2022/04/13 01:51:23;;;;;;;7.85;2.88;;;;;;;;;;7370949;19;20026;-79
2022/04/13 01:53:50;;;;;;;11.15;2.40;;;;;;;;;;7367989;19;20003;-79
2022/04/13 01:56:15;;;;;;;8.27;2.72;;;;;;;;;;7365524;19;20454;-78
2022/04/13 01:58:40;;;;;;;8.98;2.25;;;;;;;;;;7367907;19;20004;-78
2022/04/13 02:01:06;;;;;;;9.15;2.65;;;;;;;;;;7360846;19;20038;-78
2022/04/13 02:03:32;;;;;;;7.05;2.40;;;;;;;;;;7336694;19;20558;-78
2022/04/13 02:05:57;;;;;;;7.15;2.45;;;;;;;;;;7369847;19;19999;-76
2022/04/13 02:08:22;;;;;;;7.65;2.50;;;;;;;;;;7368080;19;20007;-77
2022/04/13 02:10:48;;;;;;;10.07;2.33;;;;;;;;;;7367809;19;20547;-77
2022/04/13 02:13:13;;;;;;;7.38;2.30;;;;;;;;;;7367814;19;20014;-77
2022/04/13 02:15:39;;;;;;;10.50;3.10;;;;;;;;;;7364404;19;20019;-77
2022/04/13 02:18:04;;;;;;;8.00;2.90;;;;;;;;;;7369559;19;20024;-78
2022/04/13 02:20:30;;;;;;;10.68;3.20;;;;;;;;;;7367369;19;20287;-77
2022/04/13 02:22:55;;;;;;;9.10;2.78;;;;;;;;;;7372079;19;20028;-78
2022/04/13 02:25:20;;;;;;;9.32;2.70;;;;;;;;;;7369467;19;20006;-77
2022/04/13 02:27:45;;;;;;;8.65;2.72;;;;;;;;;;7379898;19;20017;-78
2022/04/13 02:30:11;;;;;;;9.30;2.55;;;;;;;;;;7364067;19;20027;-77
2022/04/13 02:32:37;;;;;;;8.77;2.53;;;;;;;;;;7370600;19;20087;-78
2022/04/13 02:35:02;;;;;;;8.57;2.63;;;;;;;;;;7370266;19;19999;-80
2022/04/13 02:37:27;;;;;;;7.95;2.45;;;;;;;;;;7377381;19;20033;-80
2022/04/13 02:39:53;;;;;;;6.37;2.40;;;;;;;;;;7370166;19;19998;-81
2022/04/13 02:42:18;;;;;;;6.53;2.13;;;;;;;;;;7370100;19;20564;-79
2022/04/13 02:44:43;;;;;;;7.72;2.22;;;;;;;;;;7366283;19;20451;-79
2022/04/13 02:47:08;;;;;;;9.93;2.28;;;;;;;;;;7366663;19;20017;-80
2022/04/13 02:49:34;;;;;;;9.88;2.47;;;;;;;;;;7368434;19;20002;-79
2022/04/13 02:51:59;;;;;;;8.05;2.45;;;;;;;;;;7372970;19;20027;-78
2022/04/13 02:54:24;;;;;;;9.33;2.77;;;;;;;;;;7365352;19;19999;-80
2022/04/13 02:56:49;;;;;;;10.43;2.67;;;;;;;;;;7359169;19;20246;-79
2022/04/13 02:59:14;;;;;;;7.45;2.33;;;;;;;;;;7367461;19;20251;-81
2022/04/13 03:01:40;;;;;;;8.77;2.47;;;;;;;;;;7335385;19;20032;-77
2022/04/13 03:04:05;;;;;;;8.70;2.70;;;;;;;;;;7368470;19;20639;-78
2022/04/13 03:06:30;;;;;;;8.98;2.97;;;;;;;;;;7368921;19;20011;-78
2022/04/13 03:08:55;;;;;;;6.87;2.10;;;;;;;;;;7339450;19;20011;-78
2022/04/13 03:11:21;;;;;;;7.55;2.15;;;;;;;;;;7372908;19;20597;-79
2022/04/13 03:13:46;;;;;;;7.93;2.63;;;;;;;;;;7376453;19;20438;-78
2022/04/13 03:16:12;;;;;;;7.22;2.28;;;;;;;;;;7370905;19;20022;-80
2022/04/13 03:18:37;;;;;;;7.50;1.80;;;;;;;;;;7374758;19;20028;-78
2022/04/13 03:21:02;;;;;;;6.85;2.20;;;;;;;;;;7377055;19;20046;-79
2022/04/13 03:23:27;;;;;;;5.65;2.08;;;;;;;;;;7376482;19;20143;-77
2022/04/13 03:25:53;;;;;;;9.88;2.53;;;;;;;;;;7369061;19;20014;-77
2022/04/13 03:28:19;;;;;;;8.98;2.58;;;;;;;;;;7375748;19;20014;-78
2022/04/13 03:30:45;;;;;;;6.57;1.92;;;;;;;;;;7368595;19;20743;-78
2022/04/13 03:33:10;;;;;;;11.65;2.85;;;;;;;;;;7375696;19;20010;-78
2022/04/13 03:35:35;;;;;;;6.93;2.20;;;;;;;;;;7375808;19;19998;-78
2022/04/13 03:38:00;;;;;;;9.27;2.20;;;;;;;;;;7374371;19;20256;-78
2022/04/13 03:40:26;;;;;;;9.18;2.22;;;;;;;;;;7372503;19;20018;-78
2022/04/13 03:42:51;;;;;;;9.70;2.25;;;;;;;;;;7375546;19;20082;-78
2022/04/13 03:45:16;;;;;;;8.63;2.20;;;;;;;;;;7369804;19;19999;-78
2022/04/13 03:47:41;;;;;;;7.88;2.30;;;;;;;;;;7374456;19;21397;-76
2022/04/13 03:50:07;;;;;;;8.10;2.30;;;;;;;;;;7375345;19;20114;-77
2022/04/13 03:52:33;;;;;;;6.60;2.17;;;;;;;;;;7375047;19;20557;-77
2022/04/13 03:54:59;;;;;;;9.10;2.15;;;;;;;;;;7369498;19;20002;-79
2022/04/13 03:57:24;;;;;;;9.20;2.38;;;;;;;;;;7370008;19;20033;-76
2022/04/13 03:59:50;;;;;;;10.93;2.42;;;;;;;;;;7367329;19;19990;-76
2022/04/13 04:02:16;;;;;;;6.32;2.30;;;;;;;;;;7373869;19;20079;-77
2022/04/13 04:04:41;;;;;;;8.68;2.60;;;;;;;;;;7378021;19;20111;-79
2022/04/13 04:07:06;;;;;;;7.68;2.40;;;;;;;;;;7375102;19;20402;-79
2022/04/13 04:09:31;;;;;;;7.43;2.92;;;;;;;;;;7371413;19;20358;-79
2022/04/13 04:11:56;;;;;;;6.18;2.38;;;;;;;;;;7371501;19;20014;-77
2022/04/13 04:14:22;;;;;;;11.35;2.53;;;;;;;;;;7372464;19;20010;-80
2022/04/13 04:16:47;;;;;;;11.97;2.83;;;;;;;;;;7369306;19;20018;-79
2022/04/13 04:19:12;;;;;;;6.13;1.90;;;;;;;;;;7371546;19;20608;-80
2022/04/13 04:21:37;;;;;;;10.77;2.47;;;;;;;;;;7374733;19;20035;-78
2022/04/13 04:24:02;;;;;;;9.25;2.50;;;;;;;;;;7371422;19;20952;-79
2022/04/13 04:26:28;;;;;;;6.30;2.15;;;;;;;;;;7371372;19;20010;-79
2022/04/13 04:28:53;;;;;;;9.68;2.40;;;;;;;;;;7374293;19;20456;-78
2022/04/13 04:31:49;;;;;;;9.48;2.10;;;;;;;;;;7369617;19;20350;-78
2022/04/13 04:34:03;;;;;;;7.57;2.00;;;;;;;;;;7373297;19;20018;-80
2022/04/13 04:36:29;;;;;;;6.85;2.30;;;;;;;;;;7370930;19;20014;-79
2022/04/13 04:38:54;;;;;;;11.13;2.67;;;;;;;;;;7373613;19;20054;-79
2022/04/13 04:41:19;;;;;;;7.03;2.23;;;;;;;;;;7383381;19;20047;-75
2022/04/13 04:43:44;;;;;;;11.50;2.60;;;;;;;;;;7386627;19;20240;-79
2022/04/13 04:46:12;;;;;;;12.23;2.72;;;;;;;;;;7371858;19;20023;-78
2022/04/13 04:48:40;;;;;;;6.28;2.65;;;;;;;;;;7370932;19;20069;-78
2022/04/13 04:51:05;;;;;;;10.38;2.40;;;;;;;;;;7373725;19;20030;-78
2022/04/13 04:53:30;;;;;;;8.67;2.27;;;;;;;;;;7371404;19;20474;-79
2022/04/13 04:55:56;;;;;;;8.75;2.25;;;;;;;;;;7371373;19;20274;-80
2022/04/13 04:58:21;;;;;;;9.55;2.80;;;;;;;;;;7368960;19;20516;-79
2022/04/13 05:00:46;;;;;;;12.40;2.72;;;;;;;;;;7366087;19;20010;-78
2022/04/13 05:03:11;;;;;;;6.43;2.67;;;;;;;;;;7372870;19;20011;-80
2022/04/13 05:05:39;;;;;;;8.30;3.05;;;;;;;;;;7371766;19;20294;-78
2022/04/13 05:08:05;;;;;;;8.77;3.00;;;;;;;;;;7365217;19;20018;-79
2022/04/13 05:10:30;;;;;;;10.48;2.58;;;;;;;;;;7366344;19;20017;-79
2022/04/13 05:12:57;;;;;;;9.60;2.50;;;;;;;;;;7369284;19;20023;-80
2022/04/13 05:15:22;;;;;;;19.55;7.30;;;;;;;;;;7361536;19;20015;-80
2022/04/13 05:17:47;;;;;;;13.50;5.47;;;;;;;;;;7363769;19;20011;-79
2022/04/13 05:20:13;;;;;;;16.48;4.82;;;;;;;;;;7360913;19;20251;-79
2022/04/13 05:22:38;;;;;;;12.20;4.72;;;;;;;;;;7364670;19;20038;-79
2022/04/13 05:25:04;;;;;;;22.15;4.35;;;;;;;;;;7369677;19;20016;-80
2022/04/13 05:27:30;;;;;;;16.33;3.63;;;;;;;;;;7373778;19;20018;-78
2022/04/13 05:29:55;;;;;;;15.00;4.22;;;;;;;;;;7367433;19;20002;-78
2022/04/13 05:32:20;;;;;;;13.23;4.07;;;;;;;;;;7370554;19;20014;-79
2022/04/13 05:34:45;;;;;;;17.53;4.07;;;;;;;;;;7372323;19;20311;-78
2022/04/13 05:37:10;;;;;;;15.93;3.20;;;;;;;;;;7367092;19;20493;-80
2022/04/13 05:39:38;;;;;;;16.77;3.60;;;;;;;;;;7365618;19;20214;-79
2022/04/13 05:42:03;;;;;;;14.45;3.40;;;;;;;;;;7369764;19;20255;-80
2022/04/13 05:44:28;;;;;;;16.10;2.80;;;;;;;;;;7369273;19;20078;-79
2022/04/13 05:46:54;;;;;;;18.53;3.23;;;;;;;;;;7371343;19;20382;-79
2022/04/13 05:49:19;;;;;;;12.70;3.47;;;;;;;;;;7374309;19;20254;-78
2022/04/13 05:51:44;;;;;;;9.15;2.97;;;;;;;;;;7380469;19;20321;-78
2022/04/13 05:54:09;;;;;;;13.43;3.17;;;;;;;;;;7379537;19;20003;-79
2022/04/13 05:56:34;;;;;;;12.35;2.92;;;;;;;;;;7370300;19;20250;-78
2022/04/13 05:58:59;;;;;;;8.17;2.67;;;;;;;;;;7370466;19;20486;-78
2022/04/13 06:01:25;;;;;;;14.77;3.05;;;;;;;;;;7367962;19;20692;-78
2022/04/13 06:03:50;;;;;;;8.38;2.67;;;;;;;;;;7373939;19;20706;-78
2022/04/13 06:06:15;;;;;;;12.93;2.93;;;;;;;;;;7372205;19;20014;-77
2022/04/13 06:08:40;;;;;;;17.85;3.10;;;;;;;;;;7366840;19;20283;-78
2022/04/13 06:11:05;;;;;;;15.80;3.27;;;;;;;;;;7373425;19;20007;-78
2022/04/13 06:13:31;;;;;;;12.48;3.17;;;;;;;;;;7368967;19;20223;-79
2022/04/13 06:15:56;;;;;;;15.38;3.10;;;;;;;;;;7365066;19;19999;-80
2022/04/13 06:18:21;;;;;;;17.63;6.23;;;;;;;;;;7372324;19;20440;-77
2022/04/13 06:20:47;;;;;;;16.60;4.60;;;;;;;;;;7371994;19;20239;-79
2022/04/13 06:23:12;;;;;;;27.17;6.13;;;;;;;;;;7367902;19;20003;-77
2022/04/13 06:25:37;;;;;;;20.87;4.80;;;;;;;;;;7370371;19;20246;-78
2022/04/13 06:28:02;;;;;;;20.87;4.93;;;;;;;;;;7369538;19;20243;-78
2022/04/13 06:30:27;;;;;;;17.60;5.05;;;;;;;;;;7363642;19;20319;-78
2022/04/13 06:32:53;;;;;;;17.58;5.03;;;;;;;;;;7371202;19;20011;-79
2022/04/13 06:35:18;;;;;;;17.27;4.05;;;;;;;;;;7370820;19;20003;-79
2022/04/13 06:37:46;;;;;;;14.67;3.87;;;;;;;;;;7370274;19;20078;-79
2022/04/13 06:40:12;;;;;;;15.63;3.65;;;;;;;;;;7368739;19;20239;-77
2022/04/13 06:42:38;;;;;;;16.13;3.83;;;;;;;;;;7371181;19;20010;-79
2022/04/13 06:45:04;;;;;;;14.30;3.38;;;;;;;;;;7365030;19;20037;-78
2022/04/13 06:47:29;;;;;;;23.27;4.75;;;;;;;;;;7375295;19;20006;-78
2022/04/13 06:49:55;;;;;;;22.00;4.90;;;;;;;;;;7376633;19;19994;-78
2022/04/13 06:52:20;;;;;;;20.08;4.82;;;;;;;;;;7377970;19;20077;-78
2022/04/13 06:54:45;;;;;;;23.53;5.20;;;;;;;;;;7375903;19;20007;-78
2022/04/13 06:57:10;;;;;;;20.35;4.30;;;;;;;;;;7376373;19;20330;-78
2022/04/13 06:59:36;;;;;;;24.60;6.35;;;;;;;;;;7375081;19;20113;-79
2022/04/13 07:02:01;;;;;;;15.52;3.63;;;;;;;;;;7372304;19;20533;-78
2022/04/13 07:04:26;;;;;;;14.40;3.20;;;;;;;;;;7372316;19;20002;-78
2022/04/13 07:06:51;;;;;;;16.25;3.30;;;;;;;;;;7372154;19;20014;-78
2022/04/13 07:09:18;;;;;;;12.23;3.80;;;;;;;;;;7377601;19;20561;-78
2022/04/13 07:11:43;;;;;;;15.45;3.30;;;;;;;;;;7376510;19;20037;-78
2022/04/13 07:14:08;;;;;;;15.40;3.65;;;;;;;;;;7378717;19;20415;-79
2022/04/13 07:16:34;;;;;;;10.73;2.90;;;;;;;;;;7370810;19;20368;-78
2022/04/13 07:18:59;;;;;;;9.33;3.03;;;;;;;;;;7377783;19;20248;-79
2022/04/13 07:21:24;;;;;;;19.23;3.67;;;;;;;;;;7377118;19;20254;-79
2022/04/13 07:23:49;;;;;;;9.83;3.17;;;;;;;;;;7372805;19;19999;-78
2022/04/13 07:26:15;;;;;;;11.23;3.40;;;;;;;;;;7373345;19;20251;-79
2022/04/13 07:28:40;;;;;;;11.50;3.20;;;;;;;;;;7377487;19;20058;-79
2022/04/13 07:31:05;;;;;;;11.05;3.38;;;;;;;;;;7371900;19;20011;-79
2022/04/13 07:33:30;;;;;;;11.82;3.25;;;;;;;;;;7379075;19;20098;-79
2022/04/13 07:35:56;;;;;;;17.90;3.72;;;;;;;;;;7373381;19;20038;-79
2022/04/13 07:38:21;;;;;;;14.13;3.70;;;;;;;;;;7369864;19;20075;-79
2022/04/13 07:40:46;;;;;;;14.50;3.43;;;;;;;;;;7377436;19;20415;-79
2022/04/13 07:43:12;;;;;;;12.50;4.10;;;;;;;;;;7377705;19;20018;-79
2022/04/13 07:45:39;;;;;;;11.60;3.40;;;;;;;;;;7366194;19;20287;-79
2022/04/13 07:48:05;;;;;;;10.07;2.80;;;;;;;;;;7376020;19;20019;-79
2022/04/13 07:50:30;;;;;;;14.70;3.53;;;;;;;;;;7373844;19;20473;-80
2022/04/13 07:52:57;;;;;;;18.27;3.20;;;;;;;;;;7370325;19;20390;-80
2022/04/13 07:55:22;;;;;;;11.02;3.42;;;;;;;;;;7376682;19;20243;-79
2022/04/13 07:57:47;;;;;;;13.87;3.50;;;;;;;;;;7374836;19;20022;-79
2022/04/13 08:00:12;;;;;;;13.53;3.40;;;;;;;;;;7368568;19;20851;-79
2022/04/13 08:02:41;;;;;;;15.02;3.30;;;;;;;;;;7374827;19;20291;-79
2022/04/13 08:05:07;;;;;;;14.68;3.30;;;;;;;;;;7371522;19;20570;-79
2022/04/13 08:07:33;;;;;;;14.95;3.30;;;;;;;;;;7371886;19;20101;-79
2022/04/13 08:09:58;;;;;;;9.93;2.88;;;;;;;;;;7375787;19;20430;-79
2022/04/13 08:12:26;;;;;;;11.77;3.10;;;;;;;;;;7377231;19;20600;-79
2022/04/13 08:14:52;;;;;;;15.98;3.38;;;;;;;;;;7371610;19;20002;-79
2022/04/13 08:17:17;;;;;;;13.45;3.58;;;;;;;;;;7375626;19;20026;-79
2022/04/13 08:19:44;;;;;;;11.43;2.72;;;;;;;;;;7377350;19;20054;-78
2022/04/13 08:22:09;;;;;;;17.75;3.38;;;;;;;;;;7369643;19;20699;-79
2022/04/13 08:24:34;;;;;;;9.48;3.05;;;;;;;;;;7373744;19;20058;-78
2022/04/13 08:26:59;;;;;;;15.30;3.43;;;;;;;;;;7373967;19;20021;-79
2022/04/13 08:29:25;;;;;;;12.27;3.13;;;;;;;;;;7374723;19;19999;-78
2022/04/13 08:31:50;;;;;;;13.77;3.42;;;;;;;;;;7375120;19;20015;-78
2022/04/13 08:34:15;;;;;;;17.87;3.73;;;;;;;;;;7374010;19;20015;-78
2022/04/13 08:36:41;;;;;;;13.10;3.10;;;;;;;;;;7374287;19;20417;-78
2022/04/13 08:39:13;;;;;;;12.83;3.47;;;;;;;;;;7373635;19;20025;-78
2022/04/13 08:41:49;;;;;;;13.68;3.50;;;;;;;;;;7376124;19;20247;-78
2022/04/13 08:44:14;;;;;;;14.57;3.45;;;;;;;;;;7376344;19;20475;-78
2022/04/13 08:46:40;;;;;;;11.00;3.30;;;;;;;;;;7368940;19;20093;-78
2022/04/13 08:49:08;;;;;;;13.75;3.08;;;;;;;;;;7374843;19;20038;-78
2022/04/13 08:51:34;;;;;;;13.60;3.50;;;;;;;;;;7372781;19;20014;-78
2022/04/13 08:54:09;;;;;;;14.52;3.55;;;;;;;;;;7369967;19;20005;-78
2022/04/13 08:56:34;;;;;;;12.02;2.92;;;;;;;;;;7379996;19;20385;-78
2022/04/13 08:59:12;;;;;;;13.35;3.13;;;;;;;;;;7371742;19;20466;-78
2022/04/13 09:01:57;;;;;;;13.32;3.05;;;;;;;;;;7366950;19;20014;-78
2022/04/13 09:04:25;;;;;;;12.27;3.38;;;;;;;;;;7374093;19;20002;-78
2022/04/13 09:06:51;;;;;;;14.70;3.58;;;;;;;;;;7374248;19;20703;-78
2022/04/13 09:09:19;;;;;;;14.20;3.42;;;;;;;;;;7374230;19;20010;-78
2022/04/13 09:11:46;;;;;;;17.25;3.72;;;;;;;;;;7371754;19;20011;-78
2022/04/13 09:14:12;;;;;;;20.25;3.28;;;;;;;;;;7373151;19;20010;-77
2022/04/13 09:16:38;;;;;;;11.85;2.60;;;;;;;;;;7368413;19;20010;-78
2022/04/13 09:19:03;;;;;;;15.13;3.97;;;;;;;;;;7384741;19;20003;-77
2022/04/13 09:21:29;;;;;;;12.83;3.23;;;;;;;;;;7385032;19;20022;-77
2022/04/13 09:23:54;;;;;;;14.35;3.20;;;;;;;;;;7378233;19;20258;-78
2022/04/13 09:26:20;;;;;;;13.30;2.63;;;;;;;;;;7372587;19;20066;-77
2022/04/13 09:28:45;;;;;;;11.73;2.65;;;;;;;;;;7372328;19;20254;-77
2022/04/13 09:31:10;;;;;;;11.38;2.92;;;;;;;;;;7368334;19;20022;-78
2022/04/13 09:33:36;;;;;;;11.30;2.83;;;;;;;;;;7372059;19;20006;-77
2022/04/13 09:36:01;;;;;;;14.30;2.85;;;;;;;;;;7372024;19;20515;-77
2022/04/13 09:38:27;;;;;;;12.00;3.10;;;;;;;;;;7364922;19;20099;-77
2022/04/13 09:40:52;;;;;;;17.52;3.50;;;;;;;;;;7372630;19;20243;-77
2022/04/13 09:43:19;;;;;;;12.77;2.47;;;;;;;;;;7370014;19;20028;-78
2022/04/13 09:45:45;;;;;;;14.52;2.85;;;;;;;;;;7368694;19;20260;-78
2022/04/13 09:48:11;;;;;;;9.15;2.38;;;;;;;;;;7365870;19;20018;-78
2022/04/13 09:50:37;;;;;;;12.52;2.78;;;;;;;;;;7367804;19;20026;-77
2022/04/13 09:53:05;;;;;;;11.50;3.05;;;;;;;;;;7370225;19;20014;-77
2022/04/13 09:55:32;;;;;;;11.73;2.83;;;;;;;;;;7372386;19;20013;-77
2022/04/13 09:58:04;;;;;;;11.95;2.75;;;;;;;;;;7371718;19;20014;-78
2022/04/13 10:00:30;;;;;;;17.38;2.95;;;;;;;;;;7366495;19;20479;-77
2022/04/13 10:03:05;;;;;;;14.15;2.85;;;;;;;;;;7368663;19;20038;-78
2022/04/13 10:05:30;;;;;;;12.63;2.53;;;;;;;;;;7372534;19;20537;-78
2022/04/13 10:08:06;;;;;;;12.37;2.53;;;;;;;;;;7368785;19;20023;-78
2022/04/13 10:10:31;;;;;;;10.18;2.22;;;;;;;;;;7369177;19;20247;-79
2022/04/13 10:12:57;;;;;;;10.80;2.58;;;;;;;;;;7369206;19;20360;-78
2022/04/13 10:15:22;;;;;;;15.50;2.72;;;;;;;;;;7367701;19;20423;-78
2022/04/13 10:17:48;;;;;;;14.23;2.85;;;;;;;;;;7367271;19;20524;-78
2022/04/13 10:20:13;;;;;;;11.98;2.40;;;;;;;;;;7378292;19;20010;-77
2022/04/13 10:22:59;;;;;;;9.23;2.50;;;;;;;;;;7375478;19;20038;-78
2022/04/13 10:25:26;;;;;;;12.55;3.10;;;;;;;;;;7377740;19;20258;-78
2022/04/13 10:27:52;;;;;;;13.88;2.90;;;;;;;;;;7378399;19;20014;-78
2022/04/13 10:30:23;;;;;;;14.68;2.88;;;;;;;;;;7374896;19;20095;-78
2022/04/13 10:32:56;;;;;;;11.25;2.58;;;;;;;;;;7379050;19;20010;-78
2022/04/13 10:35:21;;;;;;;11.45;2.80;;;;;;;;;;7373585;19;20001;-79
2022/04/13 10:37:46;;;;;;;10.15;2.25;;;;;;;;;;7380044;19;20014;-78
2022/04/13 10:40:11;;;;;;;9.40;2.97;;;;;;;;;;7380716;19;20010;-77
2022/04/13 10:42:40;;;;;;;13.68;3.10;;;;;;;;;;7373744;19;20259;-77
2022/04/13 10:45:06;;;;;;;9.15;2.05;;;;;;;;;;7371073;19;20010;-77
2022/04/13 10:47:31;;;;;;;16.40;2.60;;;;;;;;;;7378921;19;20014;-78
2022/04/13 10:49:58;;;;;;;10.83;2.80;;;;;;;;;;7378812;19;20021;-78
2022/04/13 10:52:28;;;;;;;12.20;2.70;;;;;;;;;;7374528;19;20329;-78
2022/04/13 10:54:56;;;;;;;11.57;2.30;;;;;;;;;;7380164;19;20002;-77
2022/04/13 10:57:25;;;;;;;10.45;2.58;;;;;;;;;;7374666;19;20011;-78
2022/04/13 10:59:51;;;;;;;14.75;2.70;;;;;;;;;;7373514;19;20002;-78
2022/04/13 11:02:28;;;;;;;15.23;2.83;;;;;;;;;;7374352;19;20018;-78
2022/04/13 11:04:54;;;;;;;16.95;2.85;;;;;;;;;;7380782;19;19987;-77
2022/04/13 11:07:19;;;;;;;12.57;3.20;;;;;;;;;;7375369;19;20014;-78
2022/04/13 11:09:45;;;;;;;13.25;3.03;;;;;;;;;;7378389;19;20002;-78
2022/04/13 11:12:10;;;;;;;13.65;3.08;;;;;;;;;;7375883;19;20486;-75
2022/04/13 11:14:46;;;;;;;11.95;2.83;;;;;;;;;;7371194;19;20011;-75
2022/04/13 11:17:11;;;;;;;14.35;2.35;;;;;;;;;;7376409;19;20014;-76
2022/04/13 11:19:37;;;;;;;12.27;2.50;;;;;;;;;;7378479;19;20135;-75
2022/04/13 11:22:02;;;;;;;13.27;2.97;;;;;;;;;;7376133;19;20015;-76
2022/04/13 11:24:54;;;;;;;11.40;2.88;;;;;;;;;;7377095;19;20264;-76
2022/04/13 11:27:19;;;;;;;15.70;3.05;;;;;;;;;;7374968;19;20018;-77
2022/04/13 11:29:56;;;;;;;17.10;2.97;;;;;;;;;;7371626;19;20423;-76
2022/04/13 11:32:24;;;;;;;9.93;2.42;;;;;;;;;;7371753;19;20024;-76
2022/04/13 11:34:50;;;;;;;12.63;3.03;;;;;;;;;;7374644;19;20327;-76
2022/04/13 11:37:25;;;;;;;13.40;2.80;;;;;;;;;;7378138;19;20038;-76
2022/04/13 11:39:59;;;;;;;11.63;2.85;;;;;;;;;;7374289;19;20232;-76
2022/04/13 11:42:38;;;;;;;14.55;2.50;;;;;;;;;;7376797;19;20014;-77
2022/04/13 11:45:04;;;;;;;15.15;2.88;;;;;;;;;;7371601;19;20382;-76
2022/04/13 11:47:40;;;;;;;12.57;2.67;;;;;;;;;;7380614;19;20375;-76
2022/04/13 11:50:06;;;;;;;13.02;2.47;;;;;;;;;;7375782;19;20009;-76
2022/04/13 11:52:50;;;;;;;14.73;3.08;;;;;;;;;;7373209;19;20085;-80
2022/04/13 11:55:16;;;;;;;;;;;;;;;;;;7372704;19;20070;-75
2022/04/13 11:57:59;;;;;;;7.47;2.55;;;;;;;;;;7372306;19;20376;-75
2022/04/13 12:00:44;;;;;;;18.30;3.03;;;;;;;;;;7364840;19;20084;-77
2022/04/13 12:03:13;;;;;;;16.58;3.13;;;;;;;;;;7367919;19;20022;-77
2022/04/13 12:05:41;;;;;;;13.80;2.50;;;;;;;;;;7367645;19;20482;-76
2022/04/13 12:08:29;;;;;;;10.40;2.85;;;;;;;;;;7372156;19;20058;-77
2022/04/13 12:11:01;;;;;;;9.90;2.33;;;;;;;;;;7373033;19;20043;-79
2022/04/13 12:13:27;;;;;;;8.85;2.22;;;;;;;;;;7377436;19;20006;-78
2022/04/13 12:15:54;;;;;;;15.27;3.20;;;;;;;;;;7369964;19;20038;-78
2022/04/13 12:18:20;;;;;;;9.02;2.15;;;;;;;;;;7369256;19;20473;-78
2022/04/13 12:20:47;;;;;;;10.38;2.45;;;;;;;;;;7359460;19;19995;-79
2022/04/13 12:23:18;;;;;;;14.02;2.60;;;;;;;;;;7356908;19;20013;-79
2022/04/13 12:25:44;;;;;;;8.77;2.88;;;;;;;;;;7355040;19;20510;-79
2022/04/13 12:28:09;;;;;;;9.40;2.20;;;;;;;;;;7352376;19;20530;-79
2022/04/13 12:30:34;;;;;;;13.93;2.87;;;;;;;;;;7361349;19;19998;-78
2022/04/13 12:33:10;;;;;;;18.13;2.88;;;;;;;;;;7372467;19;20022;-78
2022/04/13 12:36:05;;;;;;;13.50;2.97;;;;;;;;;;7369958;19;20003;-78
2022/04/13 12:38:31;;;;;;;12.88;2.70;;;;;;;;;;7368797;19;20018;-78
2022/04/13 12:41:06;;;;;;;9.18;2.60;;;;;;;;;;7357888;19;19995;-77
2022/04/13 12:43:31;;;;;;;12.20;2.53;;;;;;;;;;7359032;19;20018;-78
2022/04/13 12:45:57;;;;;;;11.60;3.08;;;;;;;;;;7367828;19;20026;-80
2022/04/13 12:48:28;;;;;;;12.13;3.03;;;;;;;;;;7371197;19;20082;-77
2022/04/13 12:50:57;;;;;;;22.35;3.85;;;;;;;;;;7371963;19;20554;-78
2022/04/13 12:53:22;;;;;;;18.67;3.28;;;;;;;;;;7373331;19;20017;-78
2022/04/13 12:55:54;;;;;;;10.68;2.95;;;;;;;;;;7375208;19;20476;-78
2022/04/13 12:58:19;;;;;;;10.07;2.92;;;;;;;;;;7369024;19;20018;-78
2022/04/13 13:00:48;;;;;;;14.47;3.10;;;;;;;;;;7357060;19;20009;-78
2022/04/13 13:03:14;;;;;;;16.23;2.80;;;;;;;;;;7371253;19;20263;-78
2022/04/13 13:05:39;;;;;;;13.57;2.53;;;;;;;;;;7368731;19;20489;-78
2022/04/13 13:08:04;;;;;;;14.77;3.43;;;;;;;;;;7369249;19;20017;-78
2022/04/13 13:10:33;;;;;;;11.48;3.67;;;;;;;;;;7309663;19;20543;-78
2022/04/13 13:13:12;;;;;;;14.75;3.13;;;;;;;;;;7366717;19;20010;-78
2022/04/13 13:15:37;;;;;;;11.27;2.40;;;;;;;;;;7368839;19;20074;-79
2022/04/13 13:18:07;;;;;;;13.63;2.70;;;;;;;;;;7374093;19;20523;-78
2022/04/13 13:20:33;;;;;;;13.43;2.90;;;;;;;;;;7374256;19;20415;-78
2022/04/13 13:22:58;;;;;;;10.30;2.88;;;;;;;;;;7375918;19;20014;-79
2022/04/13 13:25:23;;;;;;;13.13;2.73;;;;;;;;;;7372219;19;20124;-79
2022/04/13 13:27:56;;;;;;;16.08;3.60;;;;;;;;;;7374413;19;20331;-78
2022/04/13 13:30:21;;;;;;;15.43;3.07;;;;;;;;;;7370855;19;20036;-78
2022/04/13 13:32:49;;;;;;;8.00;2.63;;;;;;;;;;7371017;19;20252;-78
2022/04/13 13:35:16;;;;;;;11.98;3.10;;;;;;;;;;7373208;19;20035;-78
2022/04/13 13:37:45;;;;;;;8.98;2.28;;;;;;;;;;7375163;19;20010;-79
2022/04/13 13:40:29;;;;;;;15.00;2.78;;;;;;;;;;7377709;19;20292;-79
2022/04/13 13:42:54;;;;;;;11.95;2.92;;;;;;;;;;7369449;19;20839;-78
2022/04/13 13:45:20;;;;;;;11.27;2.90;;;;;;;;;;7365511;19;19998;-79
2022/04/13 13:47:45;;;;;;;10.68;2.85;;;;;;;;;;7375231;19;20119;-78
2022/04/13 13:50:11;;;;;;;13.18;2.65;;;;;;;;;;7375942;19;20024;-78
2022/04/13 13:52:36;;;;;;;9.65;2.40;;;;;;;;;;7376881;19;20018;-78
2022/04/13 13:55:01;;;;;;;12.23;2.77;;;;;;;;;;7369595;19;20070;-77
2022/04/13 13:57:26;;;;;;;10.27;2.38;;;;;;;;;;7375234;19;20054;-78
2022/04/13 13:59:51;;;;;;;13.77;2.70;;;;;;;;;;7381217;19;20058;-78
2022/04/13 14:02:17;;;;;;;10.50;2.23;;;;;;;;;;7372489;19;20015;-78
2022/04/13 14:04:42;;;;;;;10.63;2.53;;;;;;;;;;7374036;19;20006;-79
2022/04/13 14:07:07;;;;;;;8.27;2.53;;;;;;;;;;7376979;19;20043;-78
2022/04/13 14:09:32;;;;;;;13.20;2.35;;;;;;;;;;7373504;19;20001;-78
2022/04/13 14:11:58;;;;;;;10.23;2.00;;;;;;;;;;7371228;19;20474;-78
2022/04/13 14:14:23;;;;;;;11.18;2.58;;;;;;;;;;7368933;19;19999;-78
2022/04/13 14:16:49;;;;;;;11.98;2.30;;;;;;;;;;7372794;19;20619;-78
2022/04/13 14:19:15;;;;;;;14.68;2.92;;;;;;;;;;7370234;19;20007;-79
2022/04/13 14:21:40;;;;;;;9.98;2.55;;;;;;;;;;7374047;19;20123;-80
2022/04/13 14:24:05;;;;;;;8.93;2.73;;;;;;;;;;7371834;19;19999;-79
2022/04/13 14:26:31;;;;;;;10.32;2.47;;;;;;;;;;7370063;19;20258;-79
2022/04/13 14:28:56;;;;;;;12.52;2.55;;;;;;;;;;7372665;19;20048;-79
2022/04/13 14:31:21;;;;;;;10.02;2.92;;;;;;;;;;7368572;19;20014;-79
2022/04/13 14:33:46;;;;;;;10.63;2.80;;;;;;;;;;7373225;19;20005;-79